West Coast Haida Gwaii - southern half: Past 24 Hour Conditions

 

Bella Bella Airport

01:00 AM PDT 26 September 2016
Disclaimer

This table is a summary of hourly weather conditions for the past 24 hours.
Please note that these observations might not always be representative of weather conditions over their associated marine area.

Date / Time
(PDT)
Wind(knots) Conditions Visibility(km) Pressure(kPa) Air tempC) Relative humidity(%) Dew pointC)
26 September 2016
1:00 S 7 Light Rain 16 101.9 16 92 15
0:00 S 10 Light Rain 16 101.9 16 86 14
25 September 2016
23:00 S 13 gust 27 Cloudy 16 101.9 17 78 13
22:00 S 13 Light Rain 16 101.9 17 83 14
21:00 SSE 9 gust 16 Light Rain 16 102.0 16 89 14
20:00 SSE 9 gust 17 Cloudy 16 102.0 17 79 13
19:00 SSE 11 gust 18 Cloudy 16 102.1 17 79 13
18:00 S 14 gust 23 Mostly Cloudy 16 102.1 17 78 13
17:00 S 10 gust 19 Cloudy 16 102.2 18 80 14
16:00 S 13 gust 19 Light Rain 16 102.2 16 87 14
15:00 S 12 gust 20 Cloudy 16 102.3 16 87 14
14:00 S 11 gust 20 Cloudy 16 102.3 15 93 14
13:00 S 14 gust 23 Cloudy 16 102.2 15 97 14
12:00 S 16 gust 22 Cloudy 16 102.2 15 96 14
11:00 S 6 Light Rain 16 102.1 14 98 14
10:00 S 5 Light Rain 16 102.2 14 99 14
9:00 S 7 Light Rain 5 102.2 13 100 13
8:00 SSE 7 Light Rain 11 102.1 13 98 13
7:00 S 10 gust 17 Light Rain 11 102.1 13 97 13
6:00 S 12 gust 20 Light Rain 11 102.1 13 96 13
5:00 SSE 10 gust 21 Light Rain 8 102.0 14 96 13
4:00 SSE 6 gust 18 Light Rain 8 102.0 14 94 13
3:00 S 8 gust 15 Light Rain 16 101.9 15 84 12
2:00 SE 8 Cloudy 16 101.8 14 90 12
1:00 ESE 4 Cloudy 16 101.8 12 97 12

Zoom-in to make a selection

Map of Pacific - South Coast marine weather areas Tsawwassen Ferry Terminal South Nomad - 46036 Sentry Shoal - 46131 South Brooks - 46132 Halibut Bank - 46146 South Moresby - 46147 South Hecate Strait - 46185 West Sea Otter - 46204 La Perouse Bank - 46206 East Dellwood - 46207 Discovery Island Esquimalt Harbour Kelp Reefs Malahat Race Rocks Lightstation Saturna Island Sheringham Point University of Victoria Victoria Gonzales Victoria Int'l Airport Ballenas Islands Campbell River Airport Comox Airport Entrance Island Fanny Island Nanaimo Airport Port Hardy Airport Sisters Islets Estevan Point Sartine Island Solander Island Tofino Airport Grief Point Powell River Airport Sechelt Cape St.James Bella Bella Airport Bella Coola Airport Cathedral Point Herbert Island Point Atkinson Sand Heads Lightstation Vancouver Harbour Vancouver Int'l Airport West Vancouver Port Alberni Howe Sound - Pam Rocks Squamish Airport
Legend:
buoy Buoy
land station Land Station

Pacific - South Coast Area

Another Region

What we are doing

Date modified: